Time;durP1;ratioP1;P1;durP2;ratioP2;P2;SDS_P1;SDS_P2;PMS_P1;PMS_P2;Temp;Humidity;BMP_temperature;BMP_pressure;BME280_temperature;BME280_humidity;BME280_pressure;Samples;Min_cycle;Max_cycle;Signal;HPM_P1;HPM_P2
2021/03/29 00:00:18;;;;;;;;;;;;;;;20.86;51.02;102212.50;2114809;28;2307;-31
2021/03/29 00:01:18;;;;;;;;;;;;;;;20.86;51.00;102218.22;2115772;28;1257;-32
2021/03/29 00:02:19;;;;;;;;;;;;;;;20.86;50.96;102218.22;2115193;28;1363;-31
2021/03/29 00:03:20;;;;;;;;;;;;;;;20.85;50.94;102205.16;2114778;28;2753;-32
2021/03/29 00:04:20;;;;;;;;;;;;;;;20.86;51.00;102212.50;2115793;28;1449;-35
2021/03/29 00:05:21;;;;;;;;;;;;;;;20.86;51.09;102218.22;2114809;28;2164;-31
2021/03/29 00:06:22;;;;;;;;;;;;;;;20.85;50.90;102211.69;2115650;28;1546;-31
2021/03/29 00:07:23;;;;;;;;;;;;;;;20.86;51.10;102212.50;2111740;27;3581;-32
2021/03/29 00:08:24;;;;;;;;;;;;;;;20.85;50.93;102211.69;2115125;28;2004;-32
2021/03/29 00:09:25;;;;;;;;;;;;;;;20.86;50.93;102210.50;2113235;27;3179;-33
2021/03/29 00:10:26;;;;;;;;;;;;;;;20.85;50.98;102216.53;2114894;28;2155;-32
2021/03/29 00:11:27;;;;;;;;;;;;;;;20.85;51.05;102203.16;2110570;28;2102;-32
2021/03/29 00:12:27;;;;;;;;;;;;;;;20.86;51.00;102207.66;2114286;28;1375;-33
2021/03/29 00:13:28;;;;;;;;;;;;;;;20.86;51.09;102210.50;2113294;28;2134;-31
2021/03/29 00:14:29;;;;;;;;;;;;;;;20.87;51.04;102211.38;2115464;28;1653;-34
2021/03/29 00:15:30;;;;;;;;;;;;;;;20.86;50.93;102204.81;2115818;28;1242;-32
2021/03/29 00:16:31;;;;;;;;;;;;;;;20.86;51.01;102201.13;2112089;28;2443;-33
2021/03/29 00:17:32;;;;;;;;;;;;;;;20.86;51.15;102201.13;2110552;28;2071;-35
2021/03/29 00:18:32;;;;;;;;;;;;;;;20.86;51.01;102201.97;2115230;28;1903;-33
2021/03/29 00:19:33;;;;;;;;;;;;;;;20.87;51.06;102206.53;2115358;28;1550;-34
2021/03/29 00:20:34;;;;;;;;;;;;;;;20.87;51.19;102209.38;2114575;28;1336;-31
2021/03/29 00:21:34;;;;;;;;;;;;;;;20.87;51.04;102209.38;2114854;28;2060;-32
2021/03/29 00:22:35;;;;;;;;;;;;;;;20.86;51.15;102201.97;2112363;28;2116;-32
2021/03/29 00:23:36;;;;;;;;;;;;;;;20.87;51.17;102205.69;2109983;28;1247;-35
2021/03/29 00:24:37;;;;;;;;;;;;;;;20.87;51.15;102209.38;2114148;28;1677;-31
2021/03/29 00:25:37;;;;;;;;;;;;;;;20.88;51.03;102202.50;2115292;28;1540;-35
2021/03/29 00:26:38;;;;;;;;;;;;;;;20.87;51.13;102203.69;2112546;28;2139;-32
2021/03/29 00:27:39;;;;;;;;;;;;;;;20.87;51.07;102202.84;2113382;28;2168;-33
2021/03/29 00:28:40;;;;;;;;;;;;;;;20.87;51.03;102208.53;2115701;28;1362;-37
2021/03/29 00:29:40;;;;;;;;;;;;;;;20.87;51.05;102209.38;2114748;28;3801;-32
2021/03/29 00:30:42;;;;;;;;;;;;;;;20.87;51.09;102205.69;2113829;28;1683;-31
2021/03/29 00:31:43;;;;;;;;;;;;;;;20.87;51.18;102212.22;2113636;28;2085;-34
2021/03/29 00:32:44;;;;;;;;;;;;;;;20.88;51.04;102199.66;2115072;28;2161;-33
2021/03/29 00:33:45;;;;;;;;;;;;;;;20.88;50.99;102213.88;2115345;28;1361;-33
2021/03/29 00:34:45;;;;;;;;;;;;;;;20.88;51.04;102216.72;2115983;28;1427;-35
2021/03/29 00:35:47;;;;;;;;;;;;;;;20.88;51.19;102213.06;2115543;28;1731;-31
2021/03/29 00:36:48;;;;;;;;;;;;;;;20.89;51.20;102217.56;2112618;28;2204;-32
2021/03/29 00:37:49;;;;;;;;;;;;;;;20.88;51.03;102213.06;2115590;28;1449;-33
2021/03/29 00:38:50;;;;;;;;;;;;;;;20.88;51.04;102210.22;2115710;28;1638;-31
2021/03/29 00:39:51;;;;;;;;;;;;;;;20.88;51.03;102213.06;2115477;28;1343;-39
2021/03/29 00:40:52;;;;;;;;;;;;;;;20.88;51.15;102213.88;2115739;28;1375;-34
2021/03/29 00:41:52;;;;;;;;;;;;;;;20.88;51.03;102213.06;2113573;28;2258;-34
2021/03/29 00:42:53;;;;;;;;;;;;;;;20.87;51.09;102217.91;2115763;28;2256;-32
2021/03/29 00:43:54;;;;;;;;;;;;;;;20.88;51.05;102224.44;2115542;28;1655;-31
2021/03/29 00:44:55;;;;;;;;;;;;;;;20.88;51.07;102219.56;2115584;28;1414;-37
2021/03/29 00:45:55;;;;;;;;;;;;;;;20.89;51.19;102226.09;2115145;28;1308;-32
2021/03/29 00:46:56;;;;;;;;;;;;;;;20.88;51.00;102221.59;2112213;28;2087;-34
2021/03/29 00:47:57;;;;;;;;;;;;;;;20.88;51.07;102222.41;2109628;28;1893;-33
2021/03/29 00:48:58;;;;;;;;;;;;;;;20.88;51.16;102218.75;2114081;27;1808;-33
2021/03/29 00:49:59;;;;;;;;;;;;;;;20.87;51.08;102215.06;2115544;28;1221;-37
2021/03/29 00:50:59;;;;;;;;;;;;;;;20.87;51.02;102217.06;2111851;28;1777;-33
2021/03/29 00:52:00;;;;;;;;;;;;;;;20.89;51.24;102220.41;2110745;28;2098;-31
2021/03/29 00:53:01;;;;;;;;;;;;;;;20.89;51.01;102217.56;2115721;28;1547;-38
2021/03/29 00:54:02;;;;;;;;;;;;;;;20.88;51.16;102215.91;2114718;28;1626;-37
2021/03/29 00:55:03;;;;;;;;;;;;;;;20.88;51.05;102213.88;2115445;28;1208;-33
2021/03/29 00:56:03;;;;;;;;;;;;;;;20.88;51.15;102213.88;2115445;28;1457;-33
2021/03/29 00:57:04;;;;;;;;;;;;;;;20.88;51.16;102219.56;2114033;28;2143;-33
2021/03/29 00:58:05;;;;;;;;;;;;;;;20.88;51.03;102216.72;2113851;28;1914;-33
2021/03/29 00:59:06;;;;;;;;;;;;;;;20.88;51.26;102215.91;2114328;28;2169;-34
2021/03/29 01:00:07;;;;;;;;;;;;;;;20.89;51.05;102218.41;2109928;28;1501;-32
2021/03/29 01:01:08;;;;;;;;;;;;;;;20.89;51.13;102217.56;2113409;28;2098;-32
2021/03/29 01:02:09;;;;;;;;;;;;;;;20.89;51.38;102218.41;2114338;28;2382;-35
2021/03/29 01:03:09;;;;;;;;;;;;;;;20.89;51.18;102218.41;2109726;28;2675;-34
2021/03/29 01:04:10;;;;;;;;;;;;;;;20.89;51.15;102221.25;2115302;28;1187;-32
2021/03/29 01:05:11;;;;;;;;;;;;;;;20.91;51.24;102215.25;2115212;28;1608;-33
2021/03/29 01:06:12;;;;;;;;;;;;;;;20.91;51.33;102220.94;2115590;28;1452;-33
2021/03/29 01:07:12;;;;;;;;;;;;;;;20.90;51.32;102216.44;2114496;28;2166;-35
2021/03/29 01:08:13;;;;;;;;;;;;;;;20.90;51.25;102217.25;2115584;28;1763;-32
2021/03/29 01:09:17;;;;;;;;;;;;;;;20.91;51.24;102215.25;2115332;28;1376;-31
2021/03/29 01:10:18;;;;;;;;;;;;;;;20.89;51.29;102212.72;2115559;28;1774;-32
2021/03/29 01:11:19;;;;;;;;;;;;;;;20.90;51.20;102210.72;2110684;28;2286;-33
2021/03/29 01:12:19;;;;;;;;;;;;;;;20.90;51.30;102213.59;2112314;28;1888;-33
2021/03/29 01:13:20;;;;;;;;;;;;;;;20.88;51.35;102208.19;2115265;28;1209;-34
2021/03/29 01:14:21;;;;;;;;;;;;;;;20.89;51.22;102212.72;2115696;28;1308;-31
2021/03/29 01:15:22;;;;;;;;;;;;;;;20.90;51.35;102210.72;2113761;28;2100;-34
2021/03/29 01:16:23;;;;;;;;;;;;;;;20.91;51.32;102220.94;2113752;28;1363;-32
2021/03/29 01:17:24;;;;;;;;;;;;;;;20.90;51.29;102220.09;2113924;28;2332;-31
2021/03/29 01:18:25;;;;;;;;;;;;;;;20.91;51.45;102215.25;2115104;28;1913;-32
2021/03/29 01:19:25;;;;;;;;;;;;;;;20.89;51.35;102214.72;2115009;28;1149;-36
2021/03/29 01:20:26;;;;;;;;;;;;;;;20.89;51.39;102209.88;2113820;28;2360;-32
2021/03/29 01:21:27;;;;;;;;;;;;;;;20.91;51.47;102215.25;2114915;28;1464;-31
2021/03/29 01:22:27;;;;;;;;;;;;;;;20.89;51.34;102212.72;2113861;28;1642;-32
2021/03/29 01:23:28;;;;;;;;;;;;;;;20.90;51.52;102211.56;2110655;28;2087;-32
2021/03/29 01:24:29;;;;;;;;;;;;;;;20.90;51.46;102207.91;2115336;28;1397;-32
2021/03/29 01:25:30;;;;;;;;;;;;;;;20.91;51.52;102209.56;2115138;28;1182;-31
2021/03/29 01:26:31;;;;;;;;;;;;;;;20.90;51.48;102202.19;2113724;28;1623;-32
2021/03/29 01:27:32;;;;;;;;;;;;;;;20.91;51.64;102209.56;2113092;28;1789;-32
2021/03/29 01:28:32;;;;;;;;;;;;;;;20.90;51.60;102207.91;2112866;28;1971;-32
2021/03/29 01:29:33;;;;;;;;;;;;;;;20.90;51.62;102213.59;2114423;28;1970;-31
2021/03/29 01:30:34;;;;;;;;;;;;;;;20.90;51.45;102205.88;2114086;28;2124;-31
2021/03/29 01:31:36;;;;;;;;;;;;;;;20.91;51.55;102209.56;2113738;28;1512;-31
2021/03/29 01:32:37;;;;;;;;;;;;;;;20.89;51.68;102212.72;2115385;28;1434;-32
2021/03/29 01:33:38;;;;;;;;;;;;;;;20.90;51.48;102207.91;2110801;28;2240;-33
2021/03/29 01:34:38;;;;;;;;;;;;;;;20.90;51.57;102205.88;2113966;28;1635;-32
2021/03/29 01:35:39;;;;;;;;;;;;;;;20.90;51.67;102205.88;2115389;28;1131;-34
2021/03/29 01:36:40;;;;;;;;;;;;;;;20.91;51.57;102209.56;2115065;28;1856;-32
2021/03/29 01:37:41;;;;;;;;;;;;;;;20.89;51.66;102204.19;2115708;28;1163;-32
2021/03/29 01:38:42;;;;;;;;;;;;;;;20.91;51.54;102201.03;2105392;28;2145;-34
2021/03/29 01:39:43;;;;;;;;;;;;;;;20.90;51.58;102203.03;2106327;28;1569;-32
2021/03/29 01:40:43;;;;;;;;;;;;;;;20.90;51.63;102199.34;2115160;28;1141;-34
2021/03/29 01:41:44;;;;;;;;;;;;;;;20.89;51.49;102209.88;2115628;28;1629;-31
2021/03/29 01:42:45;;;;;;;;;;;;;;;20.90;51.58;102205.88;2114017;28;1886;-32
2021/03/29 01:43:46;;;;;;;;;;;;;;;20.90;51.45;102205.88;2112698;27;2159;-37
2021/03/29 01:44:46;;;;;;;;;;;;;;;20.89;51.51;102201.34;2112575;28;2640;-34
2021/03/29 01:45:48;;;;;;;;;;;;;;;20.89;51.63;102201.34;2115416;28;1571;-34
2021/03/29 01:46:48;;;;;;;;;;;;;;;20.89;51.57;102197.66;2114964;28;1765;-36
2021/03/29 01:47:49;;;;;;;;;;;;;;;20.90;51.40;102196.50;2115235;28;1578;-32
2021/03/29 01:48:50;;;;;;;;;;;;;;;20.89;51.42;102195.66;2110414;28;2086;-34
2021/03/29 01:49:51;;;;;;;;;;;;;;;20.89;51.46;102201.34;2115448;28;1538;-32
2021/03/29 01:50:54;;;;;;;;;;;;;;;20.90;51.54;102202.19;2107700;28;1670;-31
2021/03/29 01:51:55;;;;;;;;;;;;;;;20.89;51.47;102204.19;2107510;28;1233;-33
2021/03/29 01:52:56;;;;;;;;;;;;;;;20.90;51.52;102200.19;2115113;28;1364;-32
2021/03/29 01:53:57;;;;;;;;;;;;;;;20.90;51.50;102203.03;2107911;28;2062;-35
2021/03/29 01:54:57;;;;;;;;;;;;;;;20.90;51.64;102197.34;2114459;28;1358;-32
2021/03/29 01:55:58;;;;;;;;;;;;;;;20.90;51.54;102197.34;2115134;28;1277;-33
2021/03/29 01:56:59;;;;;;;;;;;;;;;20.91;51.67;102192.50;2107585;28;1566;-32
2021/03/29 01:58:00;;;;;;;;;;;;;;;20.90;51.63;102203.03;2115252;28;2392;-32
2021/03/29 01:59:01;;;;;;;;;;;;;;;20.91;51.46;102206.72;2109799;28;2135;-33
2021/03/29 02:00:01;;;;;;;;;;;;;;;20.89;51.50;102207.03;2115289;28;1351;-35
2021/03/29 02:01:02;;;;;;;;;;;;;;;20.90;51.59;102205.88;2113050;27;2153;-32
2021/03/29 02:02:03;;;;;;;;;;;;;;;20.90;51.50;102203.03;2112644;28;1391;-34
2021/03/29 02:03:04;;;;;;;;;;;;;;;20.90;51.61;102205.88;2112666;28;2854;-32
2021/03/29 02:04:04;;;;;;;;;;;;;;;20.91;51.45;102206.72;2113609;28;2105;-32
2021/03/29 02:05:05;;;;;;;;;;;;;;;20.91;51.40;102207.56;2115201;28;1109;-33
2021/03/29 02:06:06;;;;;;;;;;;;;;;20.92;51.44;102202.69;2113685;28;1540;-32
2021/03/29 02:07:07;;;;;;;;;;;;;;;20.91;51.58;102201.03;2114888;28;1645;-32
2021/03/29 02:08:07;;;;;;;;;;;;;;;20.91;51.58;102203.88;2115368;28;1767;-32
2021/03/29 02:09:08;;;;;;;;;;;;;;;20.90;51.50;102196.50;2108441;28;2113;-34
2021/03/29 02:10:09;;;;;;;;;;;;;;;20.90;51.57;102194.50;2114731;28;1449;-33
2021/03/29 02:11:10;;;;;;;;;;;;;;;20.91;51.73;102198.19;2115164;28;1292;-32
2021/03/29 02:12:10;;;;;;;;;;;;;;;20.91;51.67;102196.16;2113492;28;2134;-34
2021/03/29 02:13:11;;;;;;;;;;;;;;;20.91;51.54;102192.50;2113594;28;1572;-32
2021/03/29 02:14:12;;;;;;;;;;;;;;;20.91;51.43;102190.47;2112158;28;2382;-33
2021/03/29 02:15:13;;;;;;;;;;;;;;;20.92;51.61;102194.16;2114406;28;1194;-34
2021/03/29 02:16:13;;;;;;;;;;;;;;;20.91;51.53;102193.34;2115576;28;1101;-32
2021/03/29 02:17:14;;;;;;;;;;;;;;;20.91;51.59;102195.34;2114080;28;2078;-32
2021/03/29 02:18:15;;;;;;;;;;;;;;;20.91;51.56;102186.81;2113724;28;1961;-33
2021/03/29 02:19:15;;;;;;;;;;;;;;;20.91;51.57;102193.34;2110844;28;2183;-32
2021/03/29 02:20:16;;;;;;;;;;;;;;;20.91;51.51;102190.47;2115719;28;1099;-32
2021/03/29 02:21:17;;;;;;;;;;;;;;;20.91;51.55;102189.66;2116683;28;1129;-35
2021/03/29 02:22:18;;;;;;;;;;;;;;;20.91;51.45;102190.47;2111994;28;2375;-31
2021/03/29 02:23:18;;;;;;;;;;;;;;;20.91;51.59;102190.47;2115589;28;1274;-32
2021/03/29 02:24:20;;;;;;;;;;;;;;;20.90;51.51;102185.13;2114590;28;2213;-32
2021/03/29 02:25:20;;;;;;;;;;;;;;;20.90;51.37;102185.97;2115424;28;1486;-32
2021/03/29 02:26:21;;;;;;;;;;;;;;;20.90;51.54;102185.13;2116130;28;1470;-33
2021/03/29 02:27:22;;;;;;;;;;;;;;;20.90;51.41;102180.28;2112042;28;2066;-31
2021/03/29 02:28:23;;;;;;;;;;;;;;;20.89;51.44;102184.25;2115479;28;1319;-32
2021/03/29 02:29:27;;;;;;;;;;;;;;;20.90;51.54;102183.13;2115975;28;1205;-35
2021/03/29 02:30:27;;;;;;;;;;;;;;;20.90;51.54;102183.13;2115408;28;1693;-32
2021/03/29 02:31:28;;;;;;;;;;;;;;;20.90;51.40;102191.66;2114191;28;1559;-32
2021/03/29 02:32:29;;;;;;;;;;;;;;;20.89;51.46;102177.75;2115718;28;2116;-32
2021/03/29 02:33:29;;;;;;;;;;;;;;;20.90;51.54;102190.81;2116942;28;1140;-33
2021/03/29 02:34:30;;;;;;;;;;;;;;;20.88;51.41;102185.44;2113250;28;2145;-32
2021/03/29 02:35:31;;;;;;;;;;;;;;;20.89;51.45;102189.13;2111249;27;3323;-42
2021/03/29 02:36:32;;;;;;;;;;;;;;;20.89;51.48;102186.28;2110752;28;2333;-32
2021/03/29 02:37:33;;;;;;;;;;;;;;;20.88;51.48;102188.28;2109051;28;2489;-36
2021/03/29 02:38:33;;;;;;;;;;;;;;;20.89;51.46;102184.25;2115098;28;1906;-35
2021/03/29 02:39:34;;;;;;;;;;;;;;;20.89;51.32;102184.25;2117158;28;1280;-33
2021/03/29 02:40:36;;;;;;;;;;;;;;;20.88;51.48;102191.13;2110387;28;2273;-32
2021/03/29 02:41:37;;;;;;;;;;;;;;;20.89;51.33;102187.09;2113477;28;2187;-35
2021/03/29 02:42:37;;;;;;;;;;;;;;;20.90;51.29;102190.81;2116131;28;1775;-33
2021/03/29 02:43:38;;;;;;;;;;;;;;;20.89;51.37;102184.25;2116933;28;1318;-34
2021/03/29 02:44:39;;;;;;;;;;;;;;;20.89;51.39;102181.41;2110693;28;2301;-39
2021/03/29 02:45:40;;;;;;;;;;;;;;;20.89;51.33;102183.44;2115540;28;1308;-31
2021/03/29 02:46:41;;;;;;;;;;;;;;;20.89;51.47;102177.75;2116053;28;1413;-35
2021/03/29 02:47:42;;;;;;;;;;;;;;;20.89;51.30;102180.59;2116979;28;1608;-33
2021/03/29 02:48:43;;;;;;;;;;;;;;;20.89;51.33;102181.41;2116175;28;1659;-32
2021/03/29 02:49:43;;;;;;;;;;;;;;;20.89;51.46;102177.75;2114860;28;2132;-33
2021/03/29 02:50:44;;;;;;;;;;;;;;;20.89;51.49;102183.44;2116341;28;1461;-31
2021/03/29 02:51:45;;;;;;;;;;;;;;;20.89;51.37;102184.25;2107510;28;1263;-32
2021/03/29 02:52:46;;;;;;;;;;;;;;;20.89;51.36;102181.41;2106749;28;1529;-31
2021/03/29 02:53:46;;;;;;;;;;;;;;;20.89;51.39;102181.41;2116322;28;1006;-34
2021/03/29 02:54:47;;;;;;;;;;;;;;;20.89;51.37;102184.25;2111927;28;2236;-31
2021/03/29 02:55:48;;;;;;;;;;;;;;;20.89;51.44;102184.25;2114929;28;2492;-35
2021/03/29 02:56:49;;;;;;;;;;;;;;;20.90;51.39;102187.97;2114654;28;1557;-32
2021/03/29 02:57:50;;;;;;;;;;;;;;;20.89;51.32;102187.09;2115981;28;1840;-33
2021/03/29 02:58:51;;;;;;;;;;;;;;;20.89;51.37;102184.25;2110272;28;2686;-32
2021/03/29 02:59:51;;;;;;;;;;;;;;;20.89;51.37;102187.09;2114683;28;1353;-33
2021/03/29 03:00:52;;;;;;;;;;;;;;;20.89;51.32;102189.94;2116085;28;1135;-32
2021/03/29 03:01:53;;;;;;;;;;;;;;;20.89;51.39;102187.09;2116243;28;1270;-32
2021/03/29 03:02:53;;;;;;;;;;;;;;;20.89;51.29;102187.09;2115401;28;2703;-32
2021/03/29 03:03:54;;;;;;;;;;;;;;;20.90;51.24;102185.13;2107653;28;2199;-34
2021/03/29 03:04:55;;;;;;;;;;;;;;;20.89;51.18;102187.09;2113958;28;2128;-31
2021/03/29 03:05:56;;;;;;;;;;;;;;;20.88;51.23;102179.75;2114195;28;1161;-33
2021/03/29 03:06:57;;;;;;;;;;;;;;;20.90;51.17;102191.66;2116716;28;1245;-33
2021/03/29 03:07:57;;;;;;;;;;;;;;;20.89;51.32;102187.09;2115673;28;1553;-32
2021/03/29 03:09:03;;;;;;;;;;;;;;;20.89;51.19;102195.66;2112306;28;2029;-35
2021/03/29 03:10:04;;;;;;;;;;;;;;;20.89;51.23;102187.09;2112831;28;1698;-33
2021/03/29 03:11:05;;;;;;;;;;;;;;;20.89;51.13;102189.94;2116722;28;1375;-40
2021/03/29 03:12:05;;;;;;;;;;;;;;;20.90;51.26;102190.81;2116090;28;1368;-34
2021/03/29 03:13:06;;;;;;;;;;;;;;;20.89;51.08;102195.66;2116459;28;1172;-32
2021/03/29 03:14:07;;;;;;;;;;;;;;;20.91;51.25;102192.50;2113968;28;2328;-33
2021/03/29 03:15:08;;;;;;;;;;;;;;;20.89;51.07;102189.94;2116473;28;1810;-32
2021/03/29 03:16:09;;;;;;;;;;;;;;;20.91;51.12;102183.97;2109201;28;2289;-32
2021/03/29 03:17:10;;;;;;;;;;;;;;;20.90;51.16;102188.81;2119369;27;1391;-32
2021/03/29 03:18:10;;;;;;;;;;;;;;;20.89;51.14;102187.09;2121800;27;1129;-34
2021/03/29 03:19:11;;;;;;;;;;;;;;;20.89;51.16;102183.44;2113973;28;2464;-35
2021/03/29 03:20:12;;;;;;;;;;;;;;;20.89;51.33;102184.25;2116198;28;1203;-32
2021/03/29 03:21:13;;;;;;;;;;;;;;;20.89;51.11;102184.25;2116287;28;1506;-32
2021/03/29 03:22:14;;;;;;;;;;;;;;;20.89;51.08;102184.25;2114642;28;1794;-32
2021/03/29 03:23:14;;;;;;;;;;;;;;;20.89;51.17;102187.09;2114384;28;1216;-32
2021/03/29 03:24:15;;;;;;;;;;;;;;;20.89;51.15;102183.44;2113826;28;2167;-38
2021/03/29 03:25:16;;;;;;;;;;;;;;;20.89;51.23;102184.25;2115970;28;1422;-32
2021/03/29 03:26:17;;;;;;;;;;;;;;;20.90;51.11;102185.13;2112220;28;2393;-34
2021/03/29 03:27:17;;;;;;;;;;;;;;;20.88;51.07;102185.44;2112089;28;1234;-33
2021/03/29 03:28:18;;;;;;;;;;;;;;;20.89;51.25;102187.09;2115796;28;1173;-32
2021/03/29 03:29:19;;;;;;;;;;;;;;;20.89;51.16;102186.28;2116331;28;1347;-31
2021/03/29 03:30:20;;;;;;;;;;;;;;;20.90;51.04;102191.66;2115326;28;1513;-34
2021/03/29 03:31:20;;;;;;;;;;;;;;;20.90;51.15;102185.97;2113639;28;2159;-32
2021/03/29 03:32:21;;;;;;;;;;;;;;;20.90;51.08;102193.66;2116062;28;1426;-33
2021/03/29 03:33:22;;;;;;;;;;;;;;;20.91;51.25;102192.50;2115750;28;1091;-33
2021/03/29 03:34:24;;;;;;;;;;;;;;;20.90;51.08;102188.81;2116271;28;1985;-32
2021/03/29 03:35:24;;;;;;;;;;;;;;;20.91;51.09;102201.03;2111379;28;1519;-35
2021/03/29 03:36:25;;;;;;;;;;;;;;;20.89;51.12;102189.94;2109428;28;2311;-36
2021/03/29 03:37:26;;;;;;;;;;;;;;;20.90;51.20;102190.81;2116196;28;1125;-32
2021/03/29 03:38:27;;;;;;;;;;;;;;;20.90;51.12;102200.19;2115643;28;1906;-31
2021/03/29 03:39:28;;;;;;;;;;;;;;;20.91;51.03;102201.03;2115524;28;1301;-31
2021/03/29 03:40:28;;;;;;;;;;;;;;;20.91;51.04;102195.34;2116060;28;1127;-32
2021/03/29 03:41:29;;;;;;;;;;;;;;;20.91;51.03;102192.50;2111097;27;2091;-32
2021/03/29 03:42:30;;;;;;;;;;;;;;;20.91;51.23;102196.16;2113606;28;1197;-32
2021/03/29 03:43:31;;;;;;;;;;;;;;;20.91;51.18;102192.50;2115433;28;1361;-33
2021/03/29 03:44:31;;;;;;;;;;;;;;;20.91;51.09;102199.03;2114843;28;1463;-33
2021/03/29 03:45:32;;;;;;;;;;;;;;;20.91;51.23;102199.03;2107016;28;1114;-36
2021/03/29 03:46:33;;;;;;;;;;;;;;;20.90;51.15;102191.66;2101737;28;2385;-32
2021/03/29 03:47:34;;;;;;;;;;;;;;;20.91;51.01;102193.34;2111083;28;1612;-32
2021/03/29 03:48:34;;;;;;;;;;;;;;;20.91;51.14;102192.50;2112904;28;1190;-35
2021/03/29 03:49:35;;;;;;;;;;;;;;;20.93;51.06;102200.72;2116191;28;1161;-33
2021/03/29 03:50:36;;;;;;;;;;;;;;;20.91;51.19;102196.16;2115909;28;1341;-42
2021/03/29 03:51:37;;;;;;;;;;;;;;;20.91;51.18;102198.19;2113224;28;2071;-33
2021/03/29 03:52:37;;;;;;;;;;;;;;;20.91;51.10;102192.50;2113085;28;2195;-32
2021/03/29 03:53:38;;;;;;;;;;;;;;;20.91;51.14;102186.81;2112510;28;1302;-33
2021/03/29 03:54:39;;;;;;;;;;;;;;;20.89;51.03;102195.66;2115759;28;1636;-32
2021/03/29 03:55:39;;;;;;;;;;;;;;;20.91;51.14;102201.03;2115610;28;1154;-32
2021/03/29 03:56:40;;;;;;;;;;;;;;;20.91;51.07;102192.50;2113665;28;2125;-37
2021/03/29 03:57:41;;;;;;;;;;;;;;;20.89;51.22;102195.66;2103581;28;1248;-32
2021/03/29 03:58:42;;;;;;;;;;;;;;;20.90;51.34;102191.66;2104717;28;1972;-32
2021/03/29 03:59:42;;;;;;;;;;;;;;;20.91;51.04;102192.50;2115625;28;1763;-32
2021/03/29 04:00:43;;;;;;;;;;;;;;;20.91;51.11;102192.50;2115471;28;1415;-35
2021/03/29 04:01:44;;;;;;;;;;;;;;;20.91;51.07;102189.66;2112076;28;2152;-32
2021/03/29 04:02:45;;;;;;;;;;;;;;;20.91;51.13;102195.34;2115690;28;1668;-32
2021/03/29 04:03:45;;;;;;;;;;;;;;;20.91;51.14;102198.19;2117610;27;3107;-35
2021/03/29 04:04:46;;;;;;;;;;;;;;;20.90;51.23;102185.13;2115057;28;2183;-32
2021/03/29 04:05:47;;;;;;;;;;;;;;;20.90;51.18;102188.81;2112267;28;1242;-31
2021/03/29 04:07:08;;;;;;;;;;;;;;;20.91;51.03;102181.13;2115081;28;2392;-34
2021/03/29 04:08:10;;;;;;;;;;;;;;;20.91;51.14;102186.81;2115842;28;1118;-32
2021/03/29 04:09:11;;;;;;;;;;;;;;;20.90;51.07;102185.97;2112234;28;1900;-33
2021/03/29 04:11:23;;;;;;;;;;;;;;;20.91;51.14;102184.78;2116191;28;1183;-35
2021/03/29 04:12:24;;;;;;;;;;;;;;;20.92;51.15;102188.47;2115496;28;1623;-35
2021/03/29 04:13:30;;;;;;;;;;;;;;;20.93;51.25;102190.19;2115775;28;1135;-33
2021/03/29 04:14:31;;;;;;;;;;;;;;;20.93;51.39;102180.81;2105022;28;2302;-31
2021/03/29 04:15:31;;;;;;;;;;;;;;;20.93;51.32;102186.50;2103881;28;1211;-32
2021/03/29 04:16:32;;;;;;;;;;;;;;;20.94;51.42;102193.84;2111925;28;2426;-37
2021/03/29 04:17:33;;;;;;;;;;;;;;;20.94;51.42;102182.47;2112423;28;2374;-32
2021/03/29 04:18:33;;;;;;;;;;;;;;;20.94;51.50;102179.63;2112405;28;1808;-33
2021/03/29 04:19:34;;;;;;;;;;;;;;;20.94;51.51;102191.84;2115537;28;1914;-33
2021/03/29 04:20:35;;;;;;;;;;;;;;;20.93;51.49;102189.34;2115982;28;1602;-32
2021/03/29 04:21:36;;;;;;;;;;;;;;;20.94;51.52;102183.31;2115716;28;1280;-33
2021/03/29 04:22:37;;;;;;;;;;;;;;;20.94;51.44;102189.00;2115608;28;1625;-32
2021/03/29 04:23:38;;;;;;;;;;;;;;;20.94;51.37;102186.16;2113840;28;2090;-32
2021/03/29 04:24:39;;;;;;;;;;;;;;;20.93;51.36;102187.34;2115729;28;1212;-32
2021/03/29 04:25:40;;;;;;;;;;;;;;;20.93;51.38;102184.50;2115726;28;1430;-35
2021/03/29 04:26:42;;;;;;;;;;;;;;;20.93;51.44;102187.34;2115145;28;1436;-33
2021/03/29 04:27:42;;;;;;;;;;;;;;;20.94;51.47;102188.16;2115828;28;1313;-31
2021/03/29 04:28:43;;;;;;;;;;;;;;;20.91;51.33;102187.63;2109475;28;2237;-32
2021/03/29 04:29:44;;;;;;;;;;;;;;;20.93;51.38;102187.34;2111443;28;1169;-33
2021/03/29 04:30:45;;;;;;;;;;;;;;;20.94;51.26;102191.00;2115309;28;1566;-32
2021/03/29 04:31:45;;;;;;;;;;;;;;;20.93;51.42;102192.19;2115567;28;1437;-32
2021/03/29 04:32:46;;;;;;;;;;;;;;;20.92;51.42;102191.31;2113615;28;2045;-33
2021/03/29 04:33:47;;;;;;;;;;;;;;;20.93;51.29;102189.34;2112906;28;2189;-31
2021/03/29 04:34:48;;;;;;;;;;;;;;;20.93;51.29;102193.03;2114550;28;1659;-32
2021/03/29 04:35:49;;;;;;;;;;;;;;;20.93;51.32;102184.50;2115545;28;1215;-33
2021/03/29 04:36:49;;;;;;;;;;;;;;;20.93;51.28;102187.34;2115807;28;1320;-33
2021/03/29 04:37:50;;;;;;;;;;;;;;;20.93;51.21;102190.19;2113939;28;2142;-31
2021/03/29 04:38:51;;;;;;;;;;;;;;;20.93;51.34;102186.50;2110648;28;2557;-33
2021/03/29 04:39:52;;;;;;;;;;;;;;;20.93;51.36;102180.81;2112681;28;2090;-32
2021/03/29 04:40:53;;;;;;;;;;;;;;;20.93;51.25;102189.34;2116032;28;1106;-33
2021/03/29 04:41:54;;;;;;;;;;;;;;;20.93;51.24;102183.66;2111607;28;1681;-33
2021/03/29 04:42:55;;;;;;;;;;;;;;;20.92;51.24;102179.94;2113514;28;2146;-32
2021/03/29 04:43:55;;;;;;;;;;;;;;;20.92;51.31;102179.94;2111119;28;1583;-38
2021/03/29 04:44:56;;;;;;;;;;;;;;;20.92;51.41;102182.78;2115806;28;1226;-34
2021/03/29 04:45:57;;;;;;;;;;;;;;;20.93;51.27;102190.19;2112051;28;2301;-32
2021/03/29 04:46:57;;;;;;;;;;;;;;;20.94;51.33;102196.72;2110327;28;1904;-32
2021/03/29 04:47:58;;;;;;;;;;;;;;;20.93;51.39;102193.03;2115567;28;2111;-35
2021/03/29 04:48:59;;;;;;;;;;;;;;;20.93;51.37;102195.03;2113103;28;2230;-33
2021/03/29 04:50:00;;;;;;;;;;;;;;;20.93;51.27;102195.88;2115310;28;1623;-33
2021/03/29 04:51:01;;;;;;;;;;;;;;;20.94;51.21;102191.00;2115639;28;1190;-37
2021/03/29 04:52:01;;;;;;;;;;;;;;;20.93;51.46;102192.19;2113261;28;1110;-32
2021/03/29 04:53:02;;;;;;;;;;;;;;;20.93;51.32;102195.88;2115181;28;1649;-34
2021/03/29 04:54:03;;;;;;;;;;;;;;;20.94;51.47;102197.53;2110055;28;2193;-33
2021/03/29 04:55:04;;;;;;;;;;;;;;;20.94;51.37;102196.72;2115277;28;1731;-33
2021/03/29 04:56:04;;;;;;;;;;;;;;;20.94;51.34;102196.72;2115273;28;1572;-40
2021/03/29 04:57:05;;;;;;;;;;;;;;;20.95;51.45;102198.38;2111501;28;2243;-32
2021/03/29 04:58:06;;;;;;;;;;;;;;;20.94;51.46;102196.72;2115038;28;2035;-32
2021/03/29 04:59:07;;;;;;;;;;;;;;;20.95;51.28;102212.59;2112903;28;2307;-35
2021/03/29 05:00:07;;;;;;;;;;;;;;;20.95;51.27;102204.06;2115447;28;1139;-34
2021/03/29 05:01:08;;;;;;;;;;;;;;;20.94;51.28;102199.56;2112765;28;2199;-32
2021/03/29 05:02:10;;;;;;;;;;;;;;;20.94;51.43;102197.53;2115093;28;1253;-32
2021/03/29 05:03:11;;;;;;;;;;;;;;;20.94;51.33;102197.53;2112532;28;2112;-36
2021/03/29 05:04:11;;;;;;;;;;;;;;;20.94;51.39;102197.53;2112105;28;2498;-34
2021/03/29 05:05:12;;;;;;;;;;;;;;;20.94;51.37;102205.25;2111715;28;2122;-35
2021/03/29 05:06:13;;;;;;;;;;;;;;;20.94;51.34;102206.06;2112239;28;2139;-35
2021/03/29 05:07:14;;;;;;;;;;;;;;;20.95;51.47;102198.38;2113753;28;2140;-32
2021/03/29 05:08:15;;;;;;;;;;;;;;;20.94;51.44;102203.22;2114943;28;1549;-35
2021/03/29 05:09:15;;;;;;;;;;;;;;;20.95;51.53;102204.06;2113599;28;2217;-34
2021/03/29 05:10:16;;;;;;;;;;;;;;;20.96;51.43;102200.91;2114971;28;1185;-32
2021/03/29 05:11:17;;;;;;;;;;;;;;;20.95;51.53;102199.25;2115627;28;1583;-32
2021/03/29 05:12:23;;;;;;;;;;;;;;;20.96;51.48;102200.09;2115340;28;1231;-32
2021/03/29 05:13:24;;;;;;;;;;;;;;;20.96;51.63;102205.78;2109931;28;3303;-33
2021/03/29 05:14:26;;;;;;;;;;;;;;;20.96;51.51;102205.78;2109188;28;2299;-35
2021/03/29 05:15:27;;;;;;;;;;;;;;;20.97;51.77;102196.06;2115438;28;2097;-31
2021/03/29 05:16:27;;;;;;;;;;;;;;;20.96;51.67;102205.78;2113080;28;2212;-33
2021/03/29 05:17:28;;;;;;;;;;;;;;;20.97;51.74;102198.91;2115293;28;1905;-32
2021/03/29 05:18:29;;;;;;;;;;;;;;;20.96;51.58;102195.22;2112631;28;2296;-32